createdAt,value
2023-01-04T00:02:22.532Z,29.08
2023-01-04T00:04:57.019Z,28.23
2023-01-04T00:07:27.501Z,26.70
2023-01-04T00:09:57.743Z,28.23
2023-01-04T00:12:27.835Z,27.25
2023-01-04T00:15:01.146Z,24.60
2023-01-04T00:17:32.765Z,25.05
2023-01-04T00:20:05.516Z,24.83
2023-01-04T00:22:37.335Z,25.10
2023-01-04T00:25:08.394Z,24.42
2023-01-04T00:27:38.473Z,23.95
2023-01-04T00:30:09.744Z,25.10
2023-01-04T00:32:40.122Z,23.80
2023-01-04T00:35:32.928Z,24.40
2023-01-04T00:38:05.307Z,22.45
2023-01-04T00:40:35.295Z,21.70
2023-01-04T00:43:05.775Z,22.13
2023-01-04T00:45:36.525Z,22.33
2023-01-04T00:48:07.442Z,21.30
2023-01-04T00:50:40.247Z,23.77
2023-01-04T00:53:10.304Z,21.92
2023-01-04T00:55:40.472Z,21.27
2023-01-04T00:58:10.783Z,21.48
2023-01-04T01:00:43.005Z,20.38
2023-01-04T01:03:13.157Z,21.35
2023-01-04T01:05:46.071Z,20.95
2023-01-04T01:08:28.327Z,21.70
2023-01-04T01:10:58.857Z,21.85
2023-01-04T01:13:28.912Z,21.55
2023-01-04T01:15:59.196Z,21.42
2023-01-04T01:18:29.293Z,22.92
2023-01-04T01:21:02.560Z,22.75
2023-01-04T01:23:32.697Z,22.45
2023-01-04T01:26:04.514Z,23.42
2023-01-04T01:28:34.614Z,22.88
2023-01-04T01:31:09.702Z,21.70
2023-01-04T01:33:40.304Z,23.42
2023-01-04T01:36:14.477Z,24.13
2023-01-04T01:38:45.085Z,23.48
2023-01-04T01:41:21.661Z,23.33
2023-01-04T01:43:57.607Z,23.50
2023-01-04T01:46:30.882Z,25.13
2023-01-04T01:49:05.530Z,24.10
2023-01-04T01:51:38.793Z,22.67
2023-01-04T01:54:14.373Z,24.38
2023-01-04T01:56:47.598Z,22.73
2023-01-04T01:59:20.040Z,22.75
2023-01-04T02:01:50.447Z,24.10
2023-01-04T02:04:21.016Z,26.75
2023-01-04T02:06:58.106Z,26.40
2023-01-04T02:09:28.463Z,31.52
2023-01-04T02:11:58.690Z,30.50
2023-01-04T02:14:32.217Z,35.03
2023-01-04T02:17:11.843Z,33.72
2023-01-04T02:20:06.884Z,35.30
2023-01-04T02:23:01.334Z,34.80
2023-01-04T02:28:25.789Z,35.92
2023-01-04T02:31:24.536Z,35.92
2023-01-04T02:34:01.428Z,33.13
2023-01-04T02:36:39.626Z,33.15
2023-01-04T02:39:24.346Z,33.38
2023-01-04T02:42:00.918Z,33.65
2023-01-04T02:44:48.795Z,31.08
2023-01-04T02:47:46.123Z,33.00
2023-01-04T02:50:33.295Z,31.90
2023-01-04T02:53:11.234Z,31.92
2023-01-04T02:55:51.364Z,33.50
2023-01-04T02:58:34.087Z,34.35
2023-01-04T03:01:29.097Z,35.47
2023-01-04T03:04:27.587Z,35.08
2023-01-04T03:07:05.684Z,37.88
2023-01-04T03:09:38.904Z,37.05
2023-01-04T03:12:27.624Z,34.58
2023-01-04T03:15:02.543Z,34.47
2023-01-04T03:17:37.599Z,32.05
2023-01-04T03:20:13.041Z,30.48
2023-01-04T03:22:58.948Z,32.15
2023-01-04T03:25:45.823Z,33.45
2023-01-04T03:28:30.827Z,31.70
2023-01-04T03:31:19.519Z,34.53
2023-01-04T03:34:02.722Z,33.92
2023-01-04T03:36:47.325Z,34.90
2023-01-04T03:39:37.528Z,34.60
2023-01-04T03:42:29.799Z,35.70
2023-01-04T03:45:22.094Z,37.95
2023-01-04T03:48:11.356Z,38.45
2023-01-04T03:50:44.783Z,38.72
2023-01-04T03:53:18.555Z,40.13
2023-01-04T03:58:23.330Z,38.50
2023-01-04T04:01:04.387Z,41.70
2023-01-04T04:03:47.485Z,39.72
2023-01-04T04:06:30.345Z,40.08
2023-01-04T04:09:03.191Z,42.88
2023-01-04T04:11:33.327Z,42.50
2023-01-04T04:14:03.890Z,41.70
2023-01-04T04:16:34.191Z,42.85
2023-01-04T04:19:08.557Z,44.80
2023-01-04T04:21:42.006Z,44.70
2023-01-04T04:24:20.757Z,44.47
2023-01-04T04:26:51.162Z,45.63
2023-01-04T04:29:21.668Z,46.17
2023-01-04T04:31:52.159Z,47.10
2023-01-04T04:34:22.451Z,48.47
2023-01-04T04:36:52.744Z,50.25
2023-01-04T04:39:27.810Z,49.15
2023-01-04T04:41:55.288Z,51.28
2023-01-04T04:44:25.788Z,51.05
2023-01-04T04:46:56.032Z,53.05
2023-01-04T04:49:26.049Z,51.80
2023-01-04T04:51:56.171Z,55.30
2023-01-04T04:54:29.120Z,54.47
2023-01-04T04:56:59.195Z,54.57
2023-01-04T04:59:29.236Z,54.25
2023-01-04T05:01:59.427Z,58.65
2023-01-04T05:04:29.805Z,62.72
2023-01-04T05:06:59.980Z,62.47
2023-01-04T05:09:32.782Z,60.92
2023-01-04T05:12:15.138Z,68.65
2023-01-04T05:14:45.232Z,62.30
2023-01-04T05:17:15.245Z,66.32
2023-01-04T05:19:45.652Z,64.05
2023-01-04T05:22:15.932Z,64.25
2023-01-04T05:24:48.656Z,62.10
2023-01-04T05:27:19.137Z,57.70
2023-01-04T05:30:01.709Z,49.08
2023-01-04T05:32:31.922Z,50.35
2023-01-04T05:35:02.275Z,46.50
2023-01-04T05:37:32.533Z,46.63
2023-01-04T05:40:05.375Z,48.33
2023-01-04T05:42:35.435Z,47.15
2023-01-04T05:45:05.742Z,48.03
2023-01-04T05:47:36.467Z,46.20
2023-01-04T05:50:07.857Z,44.67
2023-01-04T05:52:38.900Z,46.90
2023-01-04T05:55:14.813Z,47.42
2023-01-04T05:57:47.162Z,49.72
2023-01-04T06:00:18.161Z,50.55
2023-01-04T06:02:48.490Z,52.97
2023-01-04T06:05:18.632Z,52.10
2023-01-04T06:07:48.765Z,54.42
2023-01-04T06:10:22.264Z,55.97
2023-01-04T06:12:52.374Z,52.40
2023-01-04T06:15:22.721Z,51.13
2023-01-04T06:17:52.956Z,51.00
2023-01-04T06:20:23.070Z,54.55
2023-01-04T06:22:53.296Z,52.92
2023-01-04T06:25:25.956Z,55.17
2023-01-04T06:27:56.053Z,59.30
2023-01-04T06:30:28.414Z,52.90
2023-01-04T06:32:59.105Z,51.53
2023-01-04T06:35:29.113Z,50.38
2023-01-04T06:37:59.148Z,48.83
2023-01-04T06:40:31.737Z,52.53
2023-01-04T06:43:02.041Z,58.47
2023-01-04T06:45:33.384Z,51.97
2023-01-04T06:48:08.978Z,50.75
2023-01-04T06:50:39.685Z,49.80
2023-01-04T06:53:09.843Z,48.20
2023-01-04T06:55:42.667Z,52.33
2023-01-04T06:58:12.706Z,56.95
2023-01-04T07:00:43.060Z,75.15
2023-01-04T07:03:15.915Z,211.82
2023-01-04T07:05:46.718Z,129.77
2023-01-04T07:08:17.884Z,61.60
2023-01-04T07:10:52.139Z,55.08
2023-01-04T07:13:22.187Z,52.88
2023-01-04T07:15:52.644Z,53.63
2023-01-04T07:18:22.796Z,50.92
2023-01-04T07:20:52.965Z,49.95
2023-01-04T07:23:23.127Z,53.20
2023-01-04T07:25:55.821Z,59.33
2023-01-04T07:28:38.050Z,75.60
2023-01-04T07:31:09.588Z,63.53
2023-01-04T07:33:40.049Z,57.70
2023-01-04T07:36:11.015Z,58.38
2023-01-04T07:38:41.046Z,56.05
2023-01-04T07:41:13.997Z,56.15
2023-01-04T07:43:44.043Z,54.67
2023-01-04T07:46:14.207Z,51.65
2023-01-04T07:48:44.326Z,53.08
2023-01-04T07:51:14.430Z,54.15
2023-01-04T07:53:44.528Z,55.70
2023-01-04T07:56:18.970Z,56.30
2023-01-04T07:58:49.199Z,57.97
2023-01-04T08:01:21.083Z,60.80
2023-01-04T08:03:51.354Z,69.32
2023-01-04T08:06:24.135Z,71.22
2023-01-04T08:08:54.210Z,68.22
2023-01-04T08:11:26.928Z,75.10
2023-01-04T08:13:57.249Z,75.47
2023-01-04T08:16:31.962Z,78.80
2023-01-04T08:19:03.387Z,74.43
2023-01-04T08:21:35.029Z,77.18
2023-01-04T08:24:05.594Z,76.65
2023-01-04T08:26:39.359Z,82.00
2023-01-04T08:31:39.545Z,120.82
2023-01-04T08:34:12.096Z,129.13
2023-01-04T08:36:50.266Z,116.22
2023-01-04T08:39:21.866Z,114.10
2023-01-04T08:42:02.129Z,61.15
2023-01-04T08:44:34.616Z,59.67
2023-01-04T08:47:05.153Z,54.70
2023-01-04T08:49:35.308Z,48.20
2023-01-04T08:52:05.403Z,47.25
2023-01-04T08:54:36.136Z,48.47
2023-01-04T08:57:08.766Z,48.55
2023-01-04T08:59:39.054Z,47.92
2023-01-04T09:02:17.939Z,46.70
2023-01-04T09:04:48.152Z,45.13
2023-01-04T09:07:18.755Z,44.40
2023-01-04T09:09:48.780Z,42.22
2023-01-04T09:12:21.415Z,42.20
2023-01-04T09:14:51.457Z,43.70
2023-01-04T09:17:21.562Z,48.03
2023-01-04T09:19:51.598Z,50.30
2023-01-04T09:22:21.691Z,48.67
2023-01-04T09:24:51.984Z,48.75
2023-01-04T09:27:24.629Z,47.38
2023-01-04T09:29:54.843Z,47.90
2023-01-04T09:32:24.864Z,50.92
2023-01-04T09:34:56.493Z,52.53
2023-01-04T09:37:28.833Z,53.58
2023-01-04T09:39:59.124Z,62.40
2023-01-04T09:42:39.737Z,52.78
2023-01-04T09:45:24.214Z,59.90
2023-01-04T09:47:58.676Z,61.35
2023-01-04T09:50:32.290Z,61.70
2023-01-04T09:53:14.158Z,63.42
2023-01-04T09:55:49.823Z,64.05
2023-01-04T09:58:31.637Z,65.55
2023-01-04T10:01:05.744Z,63.00
2023-01-04T10:03:39.006Z,62.75
2023-01-04T10:06:12.566Z,63.90
2023-01-04T10:08:44.725Z,59.58
2023-01-04T10:11:29.347Z,58.22
2023-01-04T10:14:17.336Z,58.63
2023-01-04T10:17:28.248Z,61.33
2023-01-04T10:23:26.798Z,60.45
2023-01-04T10:26:00.109Z,64.18
2023-01-04T10:28:44.587Z,67.22
2023-01-04T10:31:40.781Z,64.55
2023-01-04T10:34:24.240Z,64.22
2023-01-04T10:37:00.132Z,60.80
2023-01-04T10:39:36.069Z,57.95
2023-01-04T10:42:17.419Z,53.75
2023-01-04T10:45:05.071Z,50.67
2023-01-04T10:47:52.323Z,46.92
2023-01-04T10:50:28.155Z,45.85
2023-01-04T10:53:05.215Z,48.53
2023-01-04T10:56:23.220Z,46.13
2023-01-04T10:58:39.458Z,47.03
2023-01-04T11:01:16.289Z,44.78
2023-01-04T11:03:55.096Z,46.67
2023-01-04T11:06:28.267Z,43.17
2023-01-04T11:09:02.611Z,41.80
2023-01-04T11:11:37.196Z,40.25
2023-01-04T11:14:07.594Z,41.08
2023-01-04T11:16:37.736Z,42.28
2023-01-04T11:19:11.774Z,43.50
2023-01-04T11:21:48.058Z,39.53
2023-01-04T11:24:32.249Z,37.17
2023-01-04T11:27:10.336Z,37.28
2023-01-04T11:29:44.931Z,41.15
2023-01-04T11:32:21.252Z,44.15
2023-01-04T11:34:57.720Z,45.75
2023-01-04T11:37:31.018Z,46.00
2023-01-04T11:40:28.349Z,48.15
2023-01-04T11:43:18.312Z,46.13
2023-01-04T11:46:01.079Z,44.15
2023-01-04T11:48:42.883Z,42.90
2023-01-04T11:51:36.759Z,41.70
2023-01-04T11:54:10.961Z,42.67
2023-01-04T11:56:41.107Z,43.40
2023-01-04T11:59:25.216Z,45.60
2023-01-04T12:02:28.899Z,45.58
2023-01-04T12:05:04.814Z,44.42
2023-01-04T12:07:38.584Z,45.10
2023-01-04T12:10:24.934Z,42.67
2023-01-04T12:12:55.552Z,40.75
2023-01-04T12:15:34.104Z,43.47
2023-01-04T12:18:09.733Z,42.40
2023-01-04T12:20:39.996Z,37.05
2023-01-04T12:23:15.116Z,35.05
2023-01-04T12:25:50.131Z,35.80
2023-01-04T12:28:37.679Z,34.78
2023-01-04T12:31:34.074Z,35.60
2023-01-04T12:34:34.508Z,28.65
2023-01-04T12:37:06.304Z,25.48
2023-01-04T12:39:47.715Z,24.85
2023-01-04T12:42:27.177Z,22.67
2023-01-04T12:45:06.001Z,25.05
2023-01-04T12:47:58.866Z,24.48
2023-01-04T12:50:32.280Z,25.33
2023-01-04T12:53:28.784Z,26.42
2023-01-04T12:56:00.478Z,24.90
2023-01-04T12:59:24.733Z,25.60
2023-01-04T13:02:21.096Z,24.05
2023-01-04T13:05:09.345Z,24.00
2023-01-04T13:07:46.752Z,23.38
2023-01-04T13:10:29.976Z,24.02
2023-01-04T13:13:40.064Z,23.40
2023-01-04T13:16:22.626Z,20.00
2023-01-04T13:18:55.361Z,19.42
2023-01-04T13:21:30.967Z,17.98
2023-01-04T13:24:04.659Z,16.80
2023-01-04T13:26:43.293Z,16.75
2023-01-04T13:29:22.486Z,15.20
2023-01-04T13:31:58.637Z,16.40
2023-01-04T13:34:34.794Z,16.35
2023-01-04T13:37:34.345Z,16.73
2023-01-04T13:40:25.459Z,17.02
2023-01-04T13:43:16.293Z,15.48
2023-01-04T13:46:17.382Z,14.60
2023-01-04T13:48:50.973Z,16.58
2023-01-04T13:51:35.881Z,15.65
2023-01-04T13:54:08.885Z,15.32
2023-01-04T13:56:39.088Z,14.32
2023-01-04T13:59:12.153Z,12.25
2023-01-04T14:01:48.343Z,9.80
2023-01-04T14:04:25.568Z,9.05
2023-01-04T14:06:58.257Z,8.40
2023-01-04T14:09:31.168Z,8.85
2023-01-04T14:12:07.589Z,7.77
2023-01-04T14:14:43.452Z,10.20
2023-01-04T14:17:44.537Z,9.35
2023-01-04T14:20:37.527Z,9.65
2023-01-04T14:23:07.593Z,7.57
2023-01-04T14:25:49.527Z,7.32
2023-01-04T14:28:49.810Z,6.13
2023-01-04T14:31:35.832Z,5.53
2023-01-04T14:34:17.865Z,5.25
2023-01-04T14:36:49.396Z,20.52
2023-01-04T14:39:28.281Z,13.18
2023-01-04T14:42:00.395Z,8.77
2023-01-04T14:44:36.372Z,7.10
2023-01-04T14:47:09.404Z,7.00
2023-01-04T14:49:42.494Z,7.82
2023-01-04T14:52:15.644Z,7.18
2023-01-04T14:54:45.740Z,7.70
2023-01-04T14:57:15.803Z,7.82
2023-01-04T14:59:46.733Z,7.63
2023-01-04T15:02:17.542Z,7.90
2023-01-04T15:04:50.467Z,8.02
2023-01-04T15:07:36.954Z,8.00
2023-01-04T15:10:09.505Z,7.15
2023-01-04T15:12:39.576Z,7.60
2023-01-04T15:15:11.599Z,7.45
2023-01-04T15:17:41.788Z,7.28
2023-01-04T15:20:15.005Z,8.88
2023-01-04T15:22:45.626Z,9.40
2023-01-04T15:25:16.338Z,9.85
2023-01-04T15:27:46.426Z,9.82
2023-01-04T15:30:17.178Z,46.50
2023-01-04T15:32:47.475Z,18.08
2023-01-04T15:35:20.538Z,15.95
2023-01-04T15:37:50.873Z,14.27
2023-01-04T15:40:24.507Z,13.27
2023-01-04T15:43:00.965Z,15.38
2023-01-04T15:45:32.180Z,15.10
2023-01-04T15:48:04.097Z,16.90
2023-01-04T15:50:38.592Z,22.85
2023-01-04T15:53:09.349Z,25.58
2023-01-04T15:55:40.859Z,26.17
2023-01-04T15:58:10.913Z,25.40
2023-01-04T16:00:42.508Z,29.42
2023-01-04T16:03:12.555Z,33.63
2023-01-04T16:05:45.264Z,30.90
2023-01-04T16:08:15.259Z,34.05
2023-01-04T16:10:45.298Z,35.15
2023-01-04T16:13:15.389Z,32.05
2023-01-04T16:15:45.922Z,30.50
2023-01-04T16:18:16.077Z,33.95
2023-01-04T16:20:48.760Z,34.70
2023-01-04T16:23:18.965Z,35.10
2023-01-04T16:25:48.992Z,30.92
2023-01-04T16:28:19.089Z,32.08
2023-01-04T16:30:50.293Z,67.57
2023-01-04T16:33:20.927Z,152.98
2023-01-04T16:36:01.034Z,74.13
2023-01-04T16:38:31.099Z,63.47
2023-01-04T16:41:02.721Z,52.30
2023-01-04T16:43:33.926Z,49.30
2023-01-04T16:46:23.697Z,42.38
2023-01-04T16:48:55.792Z,41.08
2023-01-04T16:51:30.181Z,41.00
2023-01-04T16:54:00.369Z,39.00
2023-01-04T16:56:30.478Z,34.13
2023-01-04T16:59:02.281Z,33.05
2023-01-04T17:01:34.962Z,27.73
2023-01-04T17:04:08.913Z,28.38
2023-01-04T17:06:44.672Z,27.52
2023-01-04T17:09:19.992Z,29.05
2023-01-04T17:15:00.645Z,80.15
2023-01-04T17:17:37.616Z,48.70
2023-01-04T17:20:08.832Z,30.20
2023-01-04T17:22:41.829Z,24.70
2023-01-04T17:25:12.333Z,25.50
2023-01-04T17:27:42.486Z,28.65
2023-01-04T17:30:15.308Z,32.72
2023-01-04T17:32:45.385Z,37.45
2023-01-04T17:35:15.799Z,31.73
2023-01-04T17:37:48.455Z,34.70
2023-01-04T17:40:22.908Z,36.55
2023-01-04T17:42:54.175Z,33.42
2023-01-04T17:45:25.799Z,34.00
2023-01-04T17:47:56.023Z,35.20
2023-01-04T17:50:26.103Z,32.25
2023-01-04T17:53:01.557Z,31.30
2023-01-04T17:55:31.698Z,33.17
2023-01-04T17:58:03.377Z,30.33
2023-01-04T18:03:29.507Z,29.00
2023-01-04T18:06:24.470Z,28.83
2023-01-04T18:08:52.562Z,25.38
2023-01-04T18:11:22.805Z,25.25
2023-01-04T18:13:53.326Z,26.00
2023-01-04T18:16:26.761Z,24.73
2023-01-04T18:18:57.734Z,24.20
2023-01-04T18:21:30.825Z,25.95
2023-01-04T18:29:46.946Z,21.55
2023-01-04T18:32:17.087Z,25.90
2023-01-04T18:34:47.173Z,37.67
2023-01-04T18:37:18.984Z,98.13
2023-01-04T18:39:52.353Z,42.97
2023-01-04T18:42:22.699Z,26.20
2023-01-04T18:44:52.798Z,22.48
2023-01-04T18:47:24.415Z,21.63
2023-01-04T18:49:57.259Z,20.23
2023-01-04T18:52:27.284Z,20.08
2023-01-04T18:55:00.105Z,19.02
2023-01-04T18:57:30.427Z,19.75
2023-01-04T19:00:00.935Z,17.60
2023-01-04T19:02:32.999Z,18.48
2023-01-04T19:05:03.286Z,17.52
2023-01-04T19:07:34.275Z,23.58
2023-01-04T19:10:08.837Z,22.40
2023-01-04T19:12:39.192Z,23.73
2023-01-04T19:15:11.591Z,21.40
2023-01-04T19:17:41.761Z,19.05
2023-01-04T19:20:14.548Z,17.90
2023-01-04T19:22:44.620Z,17.70
2023-01-04T19:25:19.870Z,16.90
2023-01-04T19:27:57.130Z,17.33
2023-01-04T19:32:57.445Z,16.33
2023-01-04T19:35:28.031Z,17.58
2023-01-04T19:37:58.248Z,17.50
2023-01-04T19:40:31.263Z,18.65
2023-01-04T19:43:01.777Z,16.53
2023-01-04T19:45:32.606Z,19.58
2023-01-04T19:48:02.792Z,17.88
2023-01-04T19:50:32.936Z,18.23
2023-01-04T19:53:04.027Z,19.10
2023-01-04T19:55:37.229Z,18.98
2023-01-04T19:58:07.560Z,16.85
2023-01-04T20:00:38.264Z,18.35
2023-01-04T20:03:08.610Z,16.73
2023-01-04T20:05:39.188Z,16.42
2023-01-04T20:08:09.509Z,16.52
2023-01-04T20:10:42.324Z,17.33
2023-01-04T20:13:12.339Z,16.77
2023-01-04T20:15:43.099Z,16.58
2023-01-04T20:18:14.356Z,15.55
2023-01-04T20:20:44.983Z,14.95
2023-01-04T20:23:16.313Z,15.85
2023-01-04T20:25:51.561Z,15.68
2023-01-04T20:28:22.696Z,15.98
2023-01-04T20:31:02.979Z,15.57
2023-01-04T20:33:33.636Z,15.75
2023-01-04T20:36:09.588Z,16.42
2023-01-04T20:38:40.865Z,17.45
2023-01-04T20:41:16.460Z,16.85
2023-01-04T20:43:44.933Z,16.25
2023-01-04T20:46:16.423Z,17.02
2023-01-04T20:48:46.677Z,15.07
2023-01-04T20:51:18.881Z,14.85
2023-01-04T20:53:49.224Z,15.95
2023-01-04T20:56:24.047Z,14.77
2023-01-04T20:58:55.269Z,15.55
2023-01-04T21:01:25.946Z,14.90
2023-01-04T21:03:56.475Z,14.32
2023-01-04T21:06:26.597Z,14.35
2023-01-04T21:08:58.058Z,14.25
2023-01-04T21:11:30.859Z,13.77
2023-01-04T21:14:01.926Z,13.70
2023-01-04T21:16:32.013Z,13.10
2023-01-04T21:19:02.149Z,13.45
2023-01-04T21:21:32.176Z,12.68
2023-01-04T21:24:02.424Z,13.57
2023-01-04T21:26:35.237Z,13.85
2023-01-04T21:29:05.310Z,12.13
2023-01-04T21:31:35.999Z,13.80
2023-01-04T21:34:12.444Z,14.77
2023-01-04T21:36:44.610Z,13.05
2023-01-04T21:39:14.853Z,14.45
2023-01-04T21:41:48.277Z,14.60
2023-01-04T21:44:18.654Z,13.68
2023-01-04T21:46:49.028Z,14.32
2023-01-04T21:49:21.163Z,13.70
2023-01-04T21:51:51.432Z,13.90
2023-01-04T21:54:21.452Z,12.23
2023-01-04T21:56:54.510Z,12.98
2023-01-04T21:59:24.802Z,13.53
2023-01-04T22:01:54.952Z,13.43
2023-01-04T22:04:25.128Z,12.63
2023-01-04T22:06:55.463Z,12.30
2023-01-04T22:09:25.960Z,12.75
2023-01-04T22:11:58.716Z,12.38
2023-01-04T22:14:29.015Z,11.82
2023-01-04T22:16:59.104Z,12.05
2023-01-04T22:19:29.953Z,12.18
2023-01-04T22:22:00.307Z,11.45
2023-01-04T22:24:37.266Z,11.18
2023-01-04T22:27:10.595Z,11.77
2023-01-04T22:29:40.754Z,10.60
2023-01-04T22:32:10.781Z,11.45
2023-01-04T22:34:48.490Z,11.00
2023-01-04T22:37:36.071Z,11.82
2023-01-04T22:40:16.707Z,10.88
2023-01-04T22:43:07.084Z,11.00
2023-01-04T22:45:44.470Z,11.70
2023-01-04T22:48:20.474Z,11.32
2023-01-04T22:50:55.123Z,11.90
2023-01-04T22:53:29.671Z,10.85
2023-01-04T22:56:20.404Z,11.52
2023-01-04T22:59:08.079Z,11.50
2023-01-04T23:01:47.640Z,12.20
2023-01-04T23:04:24.237Z,11.57
2023-01-04T23:07:04.833Z,10.95
2023-01-04T23:09:35.119Z,11.43
2023-01-04T23:12:18.590Z,11.30
2023-01-04T23:14:54.240Z,10.35
2023-01-04T23:17:24.302Z,11.70
2023-01-04T23:19:54.725Z,11.80
2023-01-04T23:22:25.745Z,12.23
2023-01-04T23:24:56.040Z,12.40
2023-01-04T23:27:27.676Z,10.82
2023-01-04T23:30:00.494Z,10.80
2023-01-04T23:32:30.599Z,12.18
2023-01-04T23:35:00.750Z,11.77
2023-01-04T23:37:31.115Z,11.23
2023-01-04T23:40:01.241Z,11.60
2023-01-04T23:42:31.663Z,12.13
2023-01-04T23:45:04.606Z,11.32
2023-01-04T23:47:34.669Z,12.03
2023-01-04T23:50:07.001Z,11.18
2023-01-04T23:52:37.272Z,11.98
2023-01-04T23:55:08.126Z,11.43
2023-01-04T23:57:39.019Z,12.43
